createdAt,value
2018-01-02T00:00:21.438Z,39.40
2018-01-02T00:01:21.428Z,44.20
2018-01-02T00:02:21.468Z,38.80
2018-01-02T00:03:21.525Z,41.30
2018-01-02T00:04:21.526Z,36.10
2018-01-02T00:05:21.556Z,39.10
2018-01-02T00:06:21.618Z,36.00
2018-01-02T00:07:21.628Z,43.70
2018-01-02T00:08:21.707Z,43.40
2018-01-02T00:09:21.725Z,40.00
2018-01-02T00:10:21.729Z,39.80
2018-01-02T00:11:21.752Z,42.10
2018-01-02T00:12:21.818Z,40.10
2018-01-02T00:13:21.819Z,40.90
2018-01-02T00:14:21.859Z,40.40
2018-01-02T00:15:21.921Z,44.00
2018-01-02T00:16:22.012Z,41.90
2018-01-02T00:17:21.950Z,41.80
2018-01-02T00:18:22.010Z,40.80
2018-01-02T00:19:22.008Z,41.80
2018-01-02T00:20:22.047Z,44.40
2018-01-02T00:21:22.089Z,40.40
2018-01-02T00:22:22.159Z,42.90
2018-01-02T00:23:22.137Z,43.00
2018-01-02T00:24:22.180Z,45.00
2018-01-02T00:25:22.248Z,42.00
2018-01-02T00:26:22.241Z,46.10
2018-01-02T00:27:22.280Z,40.00
2018-01-02T00:28:22.336Z,39.50
2018-01-02T00:29:22.337Z,42.50
2018-01-02T00:30:22.361Z,46.00
2018-01-02T00:31:22.439Z,46.10
2018-01-02T00:32:22.436Z,39.30
2018-01-02T00:33:22.459Z,43.90
2018-01-02T00:34:22.537Z,45.90
2018-01-02T00:35:22.527Z,39.70
2018-01-02T00:36:22.559Z,46.80
2018-01-02T00:37:22.632Z,43.20
2018-01-02T00:38:22.626Z,46.30
2018-01-02T00:39:23.246Z,52.40
2018-01-02T00:40:22.713Z,41.70
2018-01-02T00:41:22.713Z,45.80
2018-01-02T00:42:22.757Z,41.00
2018-01-02T00:43:22.821Z,46.60
2018-01-02T00:44:22.816Z,43.00
2018-01-02T00:45:22.860Z,47.70
2018-01-02T00:46:22.965Z,40.30
2018-01-02T00:47:22.915Z,43.20
2018-01-02T00:48:22.938Z,47.90
2018-01-02T00:49:23.006Z,41.80
2018-01-02T00:50:23.025Z,45.50
2018-01-02T00:51:23.054Z,41.90
2018-01-02T00:52:23.108Z,45.20
2018-01-02T00:53:23.110Z,40.10
2018-01-02T00:54:23.144Z,40.00
2018-01-02T00:55:23.202Z,40.50
2018-01-02T00:56:23.196Z,42.80
2018-01-02T00:57:23.242Z,43.30
2018-01-02T00:58:23.304Z,43.40
2018-01-02T00:59:23.326Z,40.30
2018-01-02T01:00:23.335Z,43.90
2018-01-02T01:01:23.432Z,40.10
2018-01-02T01:02:23.407Z,41.40
2018-01-02T01:03:23.450Z,45.80
2018-01-02T01:04:23.485Z,41.30
2018-01-02T01:05:23.534Z,49.80
2018-01-02T01:06:23.586Z,43.10
2018-01-02T01:07:23.612Z,48.60
2018-01-02T01:08:23.636Z,41.10
2018-01-02T01:09:23.687Z,39.30
2018-01-02T01:10:23.694Z,47.30
2018-01-02T01:11:23.730Z,44.50
2018-01-02T01:12:23.771Z,45.80
2018-01-02T01:13:23.790Z,50.20
2018-01-02T01:14:23.807Z,48.20
2018-01-02T01:15:23.884Z,43.40
2018-01-02T01:16:23.913Z,46.20
2018-01-02T01:17:23.918Z,46.90
2018-01-02T01:18:24.008Z,49.80
2018-01-02T01:19:23.997Z,43.90
2018-01-02T01:20:24.041Z,48.00
2018-01-02T01:21:24.122Z,52.30
2018-01-02T01:22:24.134Z,50.50
2018-01-02T01:23:24.131Z,45.40
2018-01-02T01:24:24.218Z,45.00
2018-01-02T01:25:24.202Z,50.30
2018-01-02T01:26:24.253Z,44.70
2018-01-02T01:27:24.299Z,44.00
2018-01-02T01:28:24.330Z,40.40
2018-01-02T01:29:24.350Z,46.20
2018-01-02T01:30:24.404Z,43.40
2018-01-02T01:31:24.397Z,48.40
2018-01-02T01:32:24.456Z,44.30
2018-01-02T01:33:24.573Z,45.30
2018-01-02T01:34:24.485Z,45.00
2018-01-02T01:35:24.517Z,47.30
2018-01-02T01:36:24.612Z,45.90
2018-01-02T01:37:24.585Z,46.60
2018-01-02T01:38:24.641Z,44.40
2018-01-02T01:39:24.699Z,43.90
2018-01-02T01:40:24.710Z,43.40
2018-01-02T01:41:24.740Z,45.90
2018-01-02T01:42:24.817Z,49.20
2018-01-02T01:43:24.785Z,43.20
2018-01-02T01:44:24.809Z,42.30
2018-01-02T01:45:24.881Z,43.90
2018-01-02T01:46:24.910Z,47.10
2018-01-02T01:47:24.933Z,51.80
2018-01-02T01:48:25.001Z,43.90
2018-01-02T01:49:24.987Z,43.60
2018-01-02T01:50:25.050Z,48.20
2018-01-02T01:51:25.097Z,48.40
2018-01-02T01:52:25.093Z,56.90
2018-01-02T01:53:25.167Z,50.90
2018-01-02T01:54:25.464Z,52.00
2018-01-02T01:55:25.177Z,51.80
2018-01-02T01:56:25.236Z,50.30
2018-01-02T01:57:25.279Z,48.70
2018-01-02T01:58:25.289Z,46.60
2018-01-02T01:59:25.301Z,50.90
2018-01-02T02:00:25.365Z,47.50
2018-01-02T02:01:25.387Z,51.80
2018-01-02T02:02:25.413Z,50.70
2018-01-02T02:03:25.472Z,48.70
2018-01-02T02:04:25.446Z,53.40
2018-01-02T02:05:25.491Z,50.90
2018-01-02T02:06:25.582Z,52.00
2018-01-02T02:07:25.588Z,57.60
2018-01-02T02:08:25.603Z,55.30
2018-01-02T02:09:25.688Z,57.80
2018-01-02T02:10:25.683Z,62.90
2018-01-02T02:11:25.710Z,59.00
2018-01-02T02:12:25.767Z,60.70
2018-01-02T02:13:25.763Z,63.70
2018-01-02T02:14:25.820Z,65.40
2018-01-02T02:15:25.839Z,65.40
2018-01-02T02:16:25.879Z,60.60
2018-01-02T02:17:25.897Z,163.00
2018-01-02T02:18:25.973Z,167.70
2018-01-02T02:19:25.955Z,179.70
2018-01-02T02:20:25.988Z,184.00
2018-01-02T02:21:26.054Z,182.70
2018-01-02T02:22:26.058Z,196.60
2018-01-02T02:23:26.104Z,180.60
2018-01-02T02:24:26.126Z,168.90
2018-01-02T02:25:26.177Z,161.50
2018-01-02T02:26:26.200Z,157.80
2018-01-02T02:27:26.236Z,154.30
2018-01-02T02:28:26.258Z,146.70
2018-01-02T02:29:26.279Z,135.20
2018-01-02T02:30:26.329Z,131.80
2018-01-02T02:31:26.363Z,132.40
2018-01-02T02:32:26.378Z,140.50
2018-01-02T02:33:26.436Z,132.40
2018-01-02T02:34:26.433Z,142.60
2018-01-02T02:35:26.462Z,150.60
2018-01-02T02:36:26.539Z,149.70
2018-01-02T02:37:26.550Z,143.00
2018-01-02T02:38:26.560Z,160.90
2018-01-02T02:39:26.634Z,159.40
2018-01-02T02:40:26.636Z,162.10
2018-01-02T02:41:26.628Z,148.20
2018-01-02T02:42:26.741Z,154.30
2018-01-02T02:43:26.709Z,155.00
2018-01-02T02:44:26.755Z,166.00
2018-01-02T02:45:26.815Z,163.20
2018-01-02T02:46:26.820Z,160.40
2018-01-02T02:47:26.860Z,159.30
2018-01-02T02:48:26.915Z,162.10
2018-01-02T02:49:26.881Z,139.50
2018-01-02T02:50:26.936Z,140.80
2018-01-02T02:51:26.983Z,141.10
2018-01-02T02:52:27.013Z,147.00
2018-01-02T02:53:27.063Z,132.10
2018-01-02T02:54:27.103Z,139.00
2018-01-02T02:55:27.092Z,146.40
2018-01-02T02:56:27.136Z,1103.40
2018-01-02T02:57:27.182Z,601.60
2018-01-02T02:58:27.198Z,619.60
2018-01-02T02:59:27.228Z,1377.50
2018-01-02T03:00:27.297Z,1661.40
2018-01-02T03:01:27.303Z,815.90
2018-01-02T03:02:27.341Z,306.30
2018-01-02T03:03:27.385Z,204.00
2018-01-02T03:04:27.402Z,147.80
2018-01-02T03:05:27.432Z,148.40
2018-01-02T03:06:27.462Z,147.10
2018-01-02T03:07:27.488Z,173.00
2018-01-02T03:08:27.504Z,194.60
2018-01-02T03:09:27.586Z,165.90
2018-01-02T03:10:27.575Z,159.70
2018-01-02T03:11:27.612Z,159.40
2018-01-02T03:12:27.666Z,157.10
2018-01-02T03:13:27.676Z,152.10
2018-01-02T03:14:27.707Z,146.10
2018-01-02T03:15:27.746Z,127.20
2018-01-02T03:16:27.774Z,137.30
2018-01-02T03:17:27.804Z,226.00
2018-01-02T03:18:27.859Z,264.60
2018-01-02T03:19:27.865Z,218.80
2018-01-02T03:20:27.910Z,208.80
2018-01-02T03:21:28.026Z,206.40
2018-01-02T03:22:27.967Z,174.40
2018-01-02T03:23:27.995Z,144.60
2018-01-02T03:24:28.043Z,165.30
2018-01-02T03:25:28.068Z,156.00
2018-01-02T03:26:28.106Z,158.90
2018-01-02T03:27:28.151Z,154.40
2018-01-02T03:28:28.144Z,140.10
2018-01-02T03:29:28.193Z,137.20
2018-01-02T03:30:28.261Z,148.30
2018-01-02T03:31:28.309Z,142.00
2018-01-02T03:32:28.256Z,132.50
2018-01-02T03:33:28.309Z,134.90
2018-01-02T03:34:28.386Z,137.60
2018-01-02T03:35:28.378Z,127.50
2018-01-02T03:36:28.414Z,164.00
2018-01-02T03:37:28.787Z,199.00
2018-01-02T03:38:28.476Z,141.60
2018-01-02T03:39:28.501Z,143.00
2018-01-02T03:40:28.560Z,139.50
2018-01-02T03:41:28.564Z,129.40
2018-01-02T03:42:28.612Z,126.40
2018-01-02T03:43:28.662Z,138.30
2018-01-02T03:44:28.677Z,126.70
2018-01-02T03:45:28.695Z,119.60
2018-01-02T03:46:28.761Z,136.60
2018-01-02T03:47:28.761Z,129.30
2018-01-02T03:48:28.784Z,131.50
2018-01-02T03:49:28.850Z,119.90
2018-01-02T03:50:28.954Z,129.60
2018-01-02T03:51:28.893Z,111.40
2018-01-02T03:52:28.981Z,90.70
2018-01-02T03:53:28.937Z,95.80
2018-01-02T03:54:28.991Z,109.30
2018-01-02T03:55:29.062Z,96.70
2018-01-02T03:56:29.052Z,100.10
2018-01-02T03:57:29.085Z,102.80
2018-01-02T03:58:29.151Z,112.00
2018-01-02T03:59:29.157Z,94.00
2018-01-02T04:00:29.191Z,104.50
2018-01-02T04:01:29.258Z,115.30
2018-01-02T04:02:29.547Z,116.70
2018-01-02T04:03:29.289Z,100.30
2018-01-02T04:04:29.328Z,95.50
2018-01-02T04:05:29.339Z,101.90
2018-01-02T04:06:29.377Z,113.40
2018-01-02T04:07:29.443Z,107.40
2018-01-02T04:08:29.445Z,112.70
2018-01-02T04:09:29.468Z,119.50
2018-01-02T04:10:29.524Z,110.30
2018-01-02T04:11:29.536Z,100.10
2018-01-02T04:12:29.561Z,92.30
2018-01-02T04:13:29.623Z,107.50
2018-01-02T04:14:29.644Z,88.60
2018-01-02T04:15:29.646Z,115.30
2018-01-02T04:16:29.726Z,114.30
2018-01-02T04:17:29.733Z,91.50
2018-01-02T04:18:29.772Z,114.70
2018-01-02T04:19:29.825Z,108.80
2018-01-02T04:20:29.830Z,130.20
2018-01-02T04:21:29.860Z,113.90
2018-01-02T04:22:29.912Z,103.50
2018-01-02T04:23:29.914Z,106.00
2018-01-02T04:24:29.953Z,119.20
2018-01-02T04:25:30.016Z,280.40
2018-01-02T04:26:30.080Z,246.70
2018-01-02T04:27:30.059Z,148.40
2018-01-02T04:28:30.113Z,126.60
2018-01-02T04:29:30.127Z,134.90
2018-01-02T04:30:30.149Z,123.10
2018-01-02T04:31:30.245Z,102.60
2018-01-02T04:32:30.360Z,112.40
2018-01-02T04:33:30.253Z,81.90
2018-01-02T04:34:30.312Z,97.90
2018-01-02T04:35:30.308Z,133.90
2018-01-02T04:36:30.350Z,106.40
2018-01-02T04:37:30.385Z,97.10
2018-01-02T04:38:30.445Z,96.10
2018-01-02T04:39:30.441Z,95.20
2018-01-02T04:40:30.473Z,70.90
2018-01-02T04:41:30.544Z,73.30
2018-01-02T04:42:30.537Z,82.90
2018-01-02T04:43:30.576Z,93.20
2018-01-02T04:44:30.638Z,91.70
2018-01-02T04:45:30.635Z,81.30
2018-01-02T04:46:30.664Z,83.90
2018-01-02T04:47:30.730Z,84.00
2018-01-02T04:48:30.747Z,94.40
2018-01-02T04:49:30.768Z,86.50
2018-01-02T04:50:30.838Z,88.90
2018-01-02T04:51:30.829Z,84.30
2018-01-02T04:52:30.863Z,95.70
2018-01-02T04:53:30.928Z,93.40
2018-01-02T04:54:30.928Z,94.70
2018-01-02T04:55:31.224Z,70.70
2018-01-02T04:56:31.023Z,51.50
2018-01-02T04:57:31.295Z,59.50
2018-01-02T04:58:31.071Z,49.90
2018-01-02T04:59:31.129Z,65.00
2018-01-02T05:00:31.136Z,54.30
2018-01-02T05:01:31.250Z,52.30
2018-01-02T05:02:31.231Z,68.80
2018-01-02T05:03:31.216Z,66.20
2018-01-02T05:04:31.261Z,78.70
2018-01-02T05:05:31.318Z,71.90
2018-01-02T05:06:31.647Z,70.70
2018-01-02T05:07:31.367Z,69.80
2018-01-02T05:08:31.424Z,51.50
2018-01-02T05:09:31.418Z,64.30
2018-01-02T05:10:31.446Z,90.80
2018-01-02T05:11:31.513Z,100.10
2018-01-02T05:12:31.515Z,70.00
2018-01-02T05:13:31.553Z,58.00
2018-01-02T05:14:31.611Z,79.80
2018-01-02T05:15:31.612Z,75.50
2018-01-02T05:16:31.646Z,80.50
2018-01-02T05:17:31.714Z,64.50
2018-01-02T05:18:31.720Z,75.60
2018-01-02T05:19:31.778Z,98.40
2018-01-02T05:20:31.780Z,74.30
2018-01-02T05:21:31.825Z,73.60
2018-01-02T05:22:31.879Z,73.50
2018-01-02T05:23:31.889Z,98.10
2018-01-02T05:24:31.912Z,93.00
2018-01-02T05:25:31.984Z,82.40
2018-01-02T05:26:31.977Z,89.90
2018-01-02T05:27:32.008Z,73.90
2018-01-02T05:28:32.073Z,67.20
2018-01-02T05:29:32.077Z,71.00
2018-01-02T05:30:32.114Z,83.90
2018-01-02T05:31:32.171Z,89.50
2018-01-02T05:32:32.172Z,77.90
2018-01-02T05:33:32.207Z,71.60
2018-01-02T05:34:32.279Z,78.30
2018-01-02T05:35:32.279Z,66.10
2018-01-02T05:36:32.499Z,67.40
2018-01-02T05:37:32.421Z,69.00
2018-01-02T05:38:32.371Z,57.70
2018-01-02T05:39:32.418Z,67.50
2018-01-02T05:40:32.477Z,45.80
2018-01-02T05:41:32.488Z,52.70
2018-01-02T05:42:32.504Z,52.30
2018-01-02T05:43:32.568Z,67.50
2018-01-02T05:44:32.566Z,85.60
2018-01-02T05:45:32.606Z,71.80
2018-01-02T05:46:32.670Z,71.80
2018-01-02T05:47:32.670Z,78.20
2018-01-02T05:48:32.718Z,77.60
2018-01-02T05:49:32.785Z,67.70
2018-01-02T05:51:32.817Z,85.00
2018-01-02T05:52:32.881Z,74.50
2018-01-02T05:53:32.908Z,79.90
2018-01-02T05:54:32.934Z,56.00
2018-01-02T05:56:32.997Z,51.10
2018-01-02T05:57:33.056Z,46.50
2018-01-02T05:58:33.072Z,56.40
2018-01-02T05:59:33.118Z,52.60
2018-01-02T06:00:33.178Z,53.90
2018-01-02T06:01:33.194Z,54.30
2018-01-02T06:02:33.347Z,50.80
2018-01-02T06:03:33.290Z,60.30
2018-01-02T06:04:33.294Z,52.80
2018-01-02T06:05:33.334Z,78.50
2018-01-02T06:06:33.405Z,58.00
2018-01-02T06:07:33.397Z,50.70
2018-01-02T06:08:33.703Z,51.50
2018-01-02T06:09:33.521Z,47.30
2018-01-02T06:10:33.530Z,50.90
2018-01-02T06:11:33.567Z,42.70
2018-01-02T06:12:33.644Z,52.10
2018-01-02T06:13:33.647Z,32.70
2018-01-02T06:14:33.682Z,32.60
2018-01-02T06:15:33.758Z,36.30
2018-01-02T06:16:33.766Z,49.80
2018-01-02T06:17:33.811Z,44.20
2018-01-02T06:18:33.869Z,41.70
2018-01-02T06:19:33.873Z,44.10
2018-01-02T06:20:33.914Z,39.20
2018-01-02T06:21:33.997Z,53.00
2018-01-02T06:22:34.021Z,69.60
2018-01-02T06:23:34.043Z,86.00
2018-01-02T06:24:34.122Z,52.50
2018-01-02T06:26:34.178Z,54.50
2018-01-02T06:27:34.204Z,60.20
2018-01-02T06:28:34.276Z,59.90
2018-01-02T06:29:34.279Z,48.20
2018-01-02T06:30:34.377Z,40.30
2018-01-02T06:31:34.386Z,40.00
2018-01-02T06:32:34.389Z,43.60
2018-01-02T06:33:34.463Z,52.70
2018-01-02T06:34:34.503Z,49.50
2018-01-02T06:35:34.515Z,41.60
2018-01-02T06:36:34.554Z,49.80
2018-01-02T06:37:34.638Z,50.60
2018-01-02T06:38:34.646Z,44.70
2018-01-02T06:39:34.673Z,49.30
2018-01-02T06:40:34.760Z,48.50
2018-01-02T06:41:34.757Z,54.20
2018-01-02T06:42:34.800Z,38.80
2018-01-02T06:43:34.937Z,44.00
2018-01-02T06:44:34.881Z,68.70
2018-01-02T06:45:34.934Z,51.30
2018-01-02T06:46:35.044Z,36.80
2018-01-02T06:47:35.001Z,57.40
2018-01-02T06:48:35.055Z,35.10
2018-01-02T06:49:35.125Z,49.10
2018-01-02T06:50:35.127Z,52.30
2018-01-02T06:51:35.177Z,65.90
2018-01-02T06:52:35.247Z,48.90
2018-01-02T06:53:35.243Z,41.10
2018-01-02T06:54:35.300Z,45.40
2018-01-02T06:55:35.368Z,58.50
2018-01-02T06:56:35.676Z,58.70
2018-01-02T06:57:35.416Z,72.00
2018-01-02T06:58:35.497Z,67.10
2018-01-02T06:59:35.496Z,53.70
2018-01-02T07:00:35.538Z,60.90
2018-01-02T07:01:35.619Z,47.50
2018-01-02T07:02:35.634Z,63.20
2018-01-02T07:03:35.661Z,85.40
2018-01-02T07:04:35.733Z,86.60
2018-01-02T07:05:35.741Z,84.50
2018-01-02T07:06:35.779Z,78.60
2018-01-02T07:07:35.864Z,60.80
2018-01-02T07:08:35.863Z,103.80
2018-01-02T07:09:35.909Z,89.10
2018-01-02T07:10:36.221Z,62.30
2018-01-02T07:11:35.982Z,51.00
2018-01-02T07:12:36.035Z,63.10
2018-01-02T07:13:36.096Z,57.80
2018-01-02T07:14:36.115Z,44.60
2018-01-02T07:15:36.151Z,45.50
2018-01-02T07:16:36.217Z,57.20
2018-01-02T07:17:36.227Z,52.30
2018-01-02T07:18:36.260Z,73.10
2018-01-02T07:19:36.333Z,64.20
2018-01-02T07:20:36.341Z,52.20
2018-01-02T07:21:36.383Z,57.70
2018-01-02T07:22:36.445Z,57.30
2018-01-02T07:23:36.459Z,56.70
2018-01-02T07:24:36.496Z,61.30
2018-01-02T07:26:36.607Z,49.20
2018-01-02T07:27:36.625Z,43.10
2018-01-02T07:28:36.661Z,50.30
2018-01-02T07:29:36.735Z,50.70
2018-01-02T07:30:36.944Z,47.10
2018-01-02T07:31:36.793Z,45.30
2018-01-02T07:32:36.853Z,52.40
2018-01-02T07:33:36.851Z,78.10
2018-01-02T07:34:36.892Z,56.00
2018-01-02T07:35:37.160Z,45.20
2018-01-02T07:36:36.964Z,46.90
2018-01-02T07:37:37.009Z,48.20
2018-01-02T07:38:37.084Z,49.70
2018-01-02T07:39:37.090Z,69.30
2018-01-02T07:40:37.128Z,48.50
2018-01-02T07:41:37.187Z,58.80
2018-01-02T07:42:37.212Z,49.40
2018-01-02T07:43:37.240Z,44.40
2018-01-02T07:44:37.302Z,39.40
2018-01-02T07:45:37.312Z,57.60
2018-01-02T07:46:37.651Z,38.10
2018-01-02T07:47:37.431Z,47.20
2018-01-02T07:48:37.425Z,40.10
2018-01-02T07:49:37.470Z,57.20
2018-01-02T07:50:37.529Z,39.40
2018-01-02T07:51:37.532Z,42.60
2018-01-02T07:52:37.571Z,40.10
2018-01-02T07:53:37.617Z,42.10
2018-01-02T07:54:37.685Z,66.70
2018-01-02T07:55:37.942Z,59.60
2018-01-02T07:56:37.711Z,70.00
2018-01-02T07:57:38.063Z,46.20
2018-01-02T07:58:38.091Z,52.00
2018-01-02T07:59:37.817Z,56.00
2018-01-02T08:00:37.896Z,46.90
2018-01-02T08:01:37.898Z,46.60
2018-01-02T08:02:37.935Z,49.10
2018-01-02T08:03:38.005Z,43.00
2018-01-02T08:04:38.010Z,55.90
2018-01-02T08:05:38.052Z,55.00
2018-01-02T08:06:38.120Z,73.70
2018-01-02T08:07:38.270Z,52.80
2018-01-02T08:08:38.144Z,44.60
2018-01-02T08:09:38.220Z,271.40
2018-01-02T08:10:38.230Z,154.30
2018-01-02T08:11:38.267Z,128.40
2018-01-02T08:12:38.342Z,72.40
2018-01-02T08:13:38.323Z,75.00
2018-01-02T08:14:38.370Z,71.40
2018-01-02T08:15:38.427Z,61.20
2018-01-02T08:16:38.786Z,70.30
2018-01-02T08:17:38.489Z,74.50
2018-01-02T08:18:38.534Z,67.80
2018-01-02T08:19:38.539Z,79.10
2018-01-02T08:20:38.637Z,74.70
2018-01-02T08:21:38.699Z,67.40
2018-01-02T08:22:38.945Z,62.80
2018-01-02T08:23:38.673Z,62.80
2018-01-02T08:24:38.820Z,69.10
2018-01-02T08:25:38.751Z,78.20
2018-01-02T08:26:38.796Z,84.40
2018-01-02T08:27:38.848Z,60.90
2018-01-02T08:28:38.864Z,68.10
2018-01-02T08:29:38.897Z,63.10
2018-01-02T08:30:38.951Z,57.10
2018-01-02T08:31:39.161Z,51.00
2018-01-02T08:32:38.996Z,55.30
2018-01-02T08:33:39.055Z,65.90
2018-01-02T08:34:39.260Z,56.40
2018-01-02T08:35:39.419Z,55.10
2018-01-02T08:36:39.166Z,53.30
2018-01-02T08:37:39.165Z,67.00
2018-01-02T08:38:39.199Z,52.20
2018-01-02T08:39:39.793Z,48.30
2018-01-02T08:40:39.276Z,61.40
2018-01-02T08:41:39.302Z,58.40
2018-01-02T08:42:39.423Z,43.80
2018-01-02T08:43:39.578Z,70.00
2018-01-02T08:44:39.410Z,58.00
2018-01-02T08:45:39.468Z,71.60
2018-01-02T08:46:39.472Z,59.80
2018-01-02T08:47:39.512Z,126.20
2018-01-02T08:48:39.569Z,119.10
2018-01-02T08:49:39.587Z,128.50
2018-01-02T08:50:39.616Z,100.40
2018-01-02T08:51:39.671Z,112.70
2018-01-02T08:52:39.677Z,120.40
2018-01-02T08:53:39.721Z,91.70
2018-01-02T08:54:39.804Z,94.80
2018-01-02T08:55:39.802Z,69.60
2018-01-02T08:56:39.847Z,69.10
2018-01-02T08:57:39.896Z,67.00
2018-01-02T08:58:39.973Z,78.30
2018-01-02T09:00:40.005Z,168.90
2018-01-02T09:01:40.024Z,167.50
2018-01-02T09:02:40.190Z,159.50
2018-01-02T09:03:40.131Z,139.30
2018-01-02T09:04:40.170Z,135.10
2018-01-02T09:05:40.211Z,123.40
2018-01-02T09:06:40.222Z,124.40
2018-01-02T09:07:40.293Z,111.20
2018-01-02T09:08:40.330Z,109.20
2018-01-02T09:09:40.336Z,89.60
2018-01-02T09:10:40.364Z,77.80
2018-01-02T09:11:40.704Z,124.80
2018-01-02T09:12:40.407Z,149.60
2018-01-02T09:13:40.453Z,141.60
2018-01-02T09:14:40.522Z,183.70
2018-01-02T09:15:40.522Z,169.80
2018-01-02T09:16:40.533Z,187.00
2018-01-02T09:17:40.603Z,173.90
2018-01-02T09:18:40.610Z,154.90
2018-01-02T09:19:40.650Z,179.00
2018-01-02T09:20:40.735Z,226.40
2018-01-02T09:21:40.787Z,272.30
2018-01-02T09:22:40.796Z,238.20
2018-01-02T09:23:40.865Z,190.60
2018-01-02T09:24:40.852Z,160.70
2018-01-02T09:25:40.869Z,140.20
2018-01-02T09:26:40.944Z,119.20
2018-01-02T09:27:40.944Z,115.50
2018-01-02T09:28:40.963Z,82.40
2018-01-02T09:29:41.024Z,82.60
2018-01-02T09:30:41.017Z,77.40
2018-01-02T09:31:41.069Z,78.70
2018-01-02T09:32:41.120Z,63.60
2018-01-02T09:33:43.156Z,69.70
2018-01-02T09:34:41.197Z,56.80
2018-01-02T09:35:41.244Z,60.00
2018-01-02T09:36:41.377Z,52.80
2018-01-02T09:37:41.261Z,67.60
2018-01-02T09:38:41.320Z,57.20
2018-01-02T09:39:41.314Z,46.70
2018-01-02T09:40:41.412Z,45.30
2018-01-02T09:41:41.391Z,51.10
2018-01-02T09:42:41.433Z,64.40
2018-01-02T09:43:41.476Z,43.40
2018-01-02T09:44:41.509Z,52.40
2018-01-02T09:45:41.525Z,45.40
2018-01-02T09:46:41.589Z,53.30
2018-01-02T09:47:41.594Z,49.20
2018-01-02T09:48:41.624Z,61.90
2018-01-02T09:49:41.719Z,54.70
2018-01-02T09:50:41.740Z,64.80
2018-01-02T09:51:41.714Z,60.20
2018-01-02T09:52:42.024Z,53.10
2018-01-02T09:53:41.812Z,50.20
2018-01-02T09:54:41.860Z,56.80
2018-01-02T09:55:41.929Z,51.70
2018-01-02T09:56:41.944Z,54.30
2018-01-02T09:57:41.975Z,49.90
2018-01-02T09:58:42.025Z,59.20
2018-01-02T09:59:42.920Z,42.60
2018-01-02T10:00:43.289Z,60.30
2018-01-02T10:01:42.123Z,42.70
2018-01-02T10:02:42.117Z,42.30
2018-01-02T10:03:42.150Z,50.40
2018-01-02T10:04:42.229Z,45.30
2018-01-02T10:05:42.234Z,45.00
2018-01-02T10:06:42.288Z,57.30
2018-01-02T10:07:42.338Z,50.70
2018-01-02T10:08:42.353Z,46.10
2018-01-02T10:09:42.382Z,55.90
2018-01-02T10:10:42.446Z,58.60
2018-01-02T10:11:42.422Z,47.00
2018-01-02T10:12:42.468Z,56.00
2018-01-02T10:13:42.542Z,57.50
2018-01-02T10:14:42.537Z,61.30
2018-01-02T10:15:42.559Z,66.50
2018-01-02T10:16:42.653Z,81.50
2018-01-02T10:17:42.643Z,64.50
2018-01-02T10:18:42.668Z,67.10
2018-01-02T10:19:42.733Z,58.10
2018-01-02T10:20:42.694Z,70.60
2018-01-02T10:21:42.922Z,69.50
2018-01-02T10:22:42.822Z,64.00
2018-01-02T10:23:42.791Z,78.50
2018-01-02T10:24:42.847Z,73.70
2018-01-02T10:25:43.202Z,83.90
2018-01-02T10:26:42.918Z,72.90
2018-01-02T10:27:42.933Z,71.40
2018-01-02T10:28:43.013Z,76.00
2018-01-02T10:29:43.015Z,76.90
2018-01-02T10:30:43.054Z,58.90
2018-01-02T10:31:43.320Z,69.10
2018-01-02T10:32:43.105Z,74.20
2018-01-02T10:33:43.161Z,68.80
2018-01-02T10:34:43.418Z,51.40
2018-01-02T10:35:43.233Z,64.10
2018-01-02T10:36:43.240Z,61.20
2018-01-02T10:37:43.348Z,63.20
2018-01-02T10:38:43.354Z,76.30
2018-01-02T10:39:43.367Z,68.50
2018-01-02T10:40:43.427Z,71.00
2018-01-02T10:41:43.734Z,71.70
2018-01-02T10:42:43.464Z,70.10
2018-01-02T10:44:43.554Z,73.70
2018-01-02T10:45:43.569Z,55.50
2018-01-02T10:46:43.603Z,60.60
2018-01-02T10:47:43.660Z,50.30
2018-01-02T10:48:43.671Z,47.10
2018-01-02T10:49:43.698Z,58.30
2018-01-02T10:50:43.781Z,53.00
2018-01-02T10:51:44.000Z,53.20
2018-01-02T10:52:43.833Z,57.30
2018-01-02T10:53:43.883Z,51.90
2018-01-02T10:54:43.886Z,56.60
2018-01-02T10:55:43.892Z,50.00
2018-01-02T10:56:43.978Z,47.40
2018-01-02T10:57:43.991Z,58.50
2018-01-02T10:58:44.017Z,62.80
2018-01-02T10:59:44.089Z,75.70
2018-01-02T11:00:44.124Z,66.40
2018-01-02T11:01:44.122Z,67.90
2018-01-02T11:02:44.199Z,64.30
2018-01-02T11:03:44.196Z,64.00
2018-01-02T11:04:44.232Z,77.00
2018-01-02T11:05:44.307Z,66.80
2018-01-02T11:06:44.294Z,67.10
2018-01-02T11:07:44.322Z,60.90
2018-01-02T11:08:44.387Z,70.00
2018-01-02T11:09:44.649Z,67.40
2018-01-02T11:10:44.442Z,64.90
2018-01-02T11:11:44.474Z,77.20
2018-01-02T11:12:44.496Z,63.20
2018-01-02T11:13:44.536Z,59.00
2018-01-02T11:14:44.895Z,73.70
2018-01-02T11:15:44.598Z,80.50
2018-01-02T11:16:44.627Z,74.50
2018-01-02T11:17:44.707Z,72.10
2018-01-02T11:18:44.705Z,80.00
2018-01-02T11:19:44.737Z,74.40
2018-01-02T11:20:44.797Z,66.50
2018-01-02T11:21:44.803Z,59.70
2018-01-02T11:22:44.833Z,75.20
2018-01-02T11:23:44.896Z,77.60
2018-01-02T11:24:44.907Z,74.30
2018-01-02T11:25:44.925Z,67.60
2018-01-02T11:26:44.995Z,60.40
2018-01-02T11:27:45.006Z,71.00
2018-01-02T11:28:45.061Z,67.50
2018-01-02T11:29:45.120Z,72.20
2018-01-02T11:30:45.113Z,73.10
2018-01-02T11:31:45.145Z,87.50
2018-01-02T11:32:45.198Z,64.30
2018-01-02T11:33:45.201Z,73.90
2018-01-02T11:34:45.229Z,75.60
2018-01-02T11:35:45.298Z,66.10
2018-01-02T11:36:45.303Z,76.70
2018-01-02T11:37:45.328Z,68.00
2018-01-02T11:38:45.398Z,75.20
2018-01-02T11:39:45.393Z,70.80
2018-01-02T11:40:45.436Z,73.60
2018-01-02T11:41:45.503Z,81.80
2018-01-02T11:42:45.497Z,70.90
2018-01-02T11:43:45.548Z,60.40
2018-01-02T11:44:45.600Z,74.30
2018-01-02T11:45:45.598Z,68.50
2018-01-02T11:46:45.682Z,68.10
2018-01-02T11:47:45.704Z,64.30
2018-01-02T11:48:45.716Z,76.70
2018-01-02T11:49:45.762Z,77.40
2018-01-02T11:50:45.833Z,61.70
2018-01-02T11:51:45.816Z,73.70
2018-01-02T11:52:45.845Z,74.60
2018-01-02T11:53:45.894Z,77.40
2018-01-02T11:54:45.921Z,69.60
2018-01-02T11:55:45.943Z,76.20
2018-01-02T11:56:46.021Z,76.90
2018-01-02T11:57:46.030Z,70.60
2018-01-02T11:58:46.040Z,89.10
2018-01-02T11:59:46.108Z,76.80
2018-01-02T12:00:46.123Z,85.60
2018-01-02T12:01:46.147Z,78.70
2018-01-02T12:02:46.213Z,90.70
2018-01-02T12:03:46.221Z,93.30
2018-01-02T12:04:46.259Z,89.20
2018-01-02T12:05:46.314Z,102.80
2018-01-02T12:06:46.328Z,92.20
2018-01-02T12:07:46.363Z,102.50
2018-01-02T12:08:46.428Z,91.30
2018-01-02T12:09:46.422Z,90.20
2018-01-02T12:10:46.466Z,83.70
2018-01-02T12:11:46.691Z,73.90
2018-01-02T12:12:46.555Z,77.90
2018-01-02T12:13:46.561Z,93.20
2018-01-02T12:14:46.591Z,82.40
2018-01-02T12:15:46.657Z,90.80
2018-01-02T12:16:46.658Z,65.90
2018-01-02T12:17:46.716Z,86.90
2018-01-02T12:19:46.791Z,64.10
2018-01-02T12:20:46.805Z,69.80
2018-01-02T12:21:46.845Z,81.00
2018-01-02T12:22:46.894Z,64.30
2018-01-02T12:23:46.909Z,82.70
2018-01-02T12:24:46.944Z,81.90
2018-01-02T12:25:47.007Z,91.20
2018-01-02T12:26:47.005Z,76.50
2018-01-02T12:27:47.239Z,81.30
2018-01-02T12:28:47.101Z,85.80
2018-01-02T12:29:47.102Z,80.40
2018-01-02T12:30:47.138Z,83.20
2018-01-02T12:31:47.207Z,76.30
2018-01-02T12:32:47.222Z,94.90
2018-01-02T12:33:47.319Z,72.30
2018-01-02T12:34:47.319Z,91.20
2018-01-02T12:35:47.317Z,93.00
2018-01-02T12:36:47.342Z,88.00
2018-01-02T12:37:47.411Z,79.70
2018-01-02T12:38:47.427Z,73.90
2018-01-02T12:39:47.461Z,92.10
2018-01-02T12:40:47.519Z,82.40
2018-01-02T12:41:47.523Z,87.90
2018-01-02T12:42:47.548Z,83.40
2018-01-02T12:43:47.636Z,99.20
2018-01-02T12:44:47.820Z,88.20
2018-01-02T12:45:47.958Z,97.20
2018-01-02T12:46:47.727Z,106.00
2018-01-02T12:47:47.751Z,110.40
2018-01-02T12:48:47.754Z,97.20
2018-01-02T12:49:47.826Z,119.00
2018-01-02T12:50:47.841Z,122.90
2018-01-02T12:51:47.855Z,135.20
2018-01-02T12:52:47.946Z,127.70
2018-01-02T12:53:47.938Z,122.70